createdAt,value
2022-07-27T00:02:02.303Z,7.15
2022-07-27T00:04:09.545Z,9.35
2022-07-27T00:06:18.821Z,6.70
2022-07-27T00:08:25.893Z,8.18
2022-07-27T00:10:33.692Z,7.93
2022-07-27T00:12:40.975Z,6.32
2022-07-27T00:14:48.566Z,6.13
2022-07-27T00:16:55.904Z,7.13
2022-07-27T00:19:03.290Z,7.57
2022-07-27T00:21:10.896Z,8.13
2022-07-27T00:23:20.159Z,5.72
2022-07-27T00:25:28.117Z,6.10
2022-07-27T00:27:35.444Z,7.45
2022-07-27T00:29:42.891Z,7.78
2022-07-27T00:31:50.205Z,7.00
2022-07-27T00:33:57.555Z,7.20
2022-07-27T00:36:04.998Z,7.35
2022-07-27T00:38:12.075Z,6.45
2022-07-27T00:40:21.044Z,7.88
2022-07-27T00:42:29.247Z,9.35
2022-07-27T00:44:37.060Z,7.55
2022-07-27T00:46:44.854Z,6.70
2022-07-27T00:48:52.174Z,6.53
2022-07-27T00:51:00.229Z,7.47
2022-07-27T00:53:07.770Z,9.40
2022-07-27T00:55:14.898Z,5.72
2022-07-27T00:57:24.181Z,6.15
2022-07-27T00:59:32.079Z,6.22
2022-07-27T01:01:39.494Z,7.68
2022-07-27T01:03:46.746Z,6.70
2022-07-27T01:05:55.681Z,6.20
2022-07-27T01:08:03.641Z,6.25
2022-07-27T01:10:11.773Z,6.40
2022-07-27T01:12:20.287Z,7.30
2022-07-27T01:14:29.259Z,6.75
2022-07-27T01:16:36.736Z,8.63
2022-07-27T01:18:44.493Z,7.82
2022-07-27T01:20:51.624Z,5.47
2022-07-27T01:23:00.601Z,9.85
2022-07-27T01:25:08.147Z,7.50
2022-07-27T01:27:15.577Z,6.13
2022-07-27T01:29:22.552Z,7.25
2022-07-27T01:31:30.235Z,7.22
2022-07-27T01:33:37.691Z,6.90
2022-07-27T01:35:45.232Z,8.93
2022-07-27T01:37:52.366Z,8.15
2022-07-27T01:40:01.326Z,6.07
2022-07-27T01:42:08.611Z,7.45
2022-07-27T01:44:16.061Z,6.15
2022-07-27T01:46:23.206Z,7.05
2022-07-27T01:48:30.910Z,6.38
2022-07-27T01:50:38.054Z,5.80
2022-07-27T01:52:45.192Z,8.13
2022-07-27T01:54:52.021Z,6.43
2022-07-27T01:57:00.684Z,6.90
2022-07-27T01:59:08.131Z,8.80
2022-07-27T02:01:23.631Z,7.65
2022-07-27T02:03:30.822Z,8.30
2022-07-27T02:05:38.079Z,6.70
2022-07-27T02:07:45.652Z,6.25
2022-07-27T02:09:52.777Z,5.57
2022-07-27T02:12:17.989Z,6.85
2022-07-27T02:14:25.574Z,9.13
2022-07-27T02:16:32.567Z,5.80
2022-07-27T02:18:40.036Z,6.43
2022-07-27T02:20:47.226Z,7.30
2022-07-27T02:22:57.986Z,8.87
2022-07-27T02:25:05.782Z,6.10
2022-07-27T02:27:14.612Z,7.43
2022-07-27T02:29:22.756Z,6.88
2022-07-27T02:31:33.053Z,5.45
2022-07-27T02:33:41.062Z,6.78
2022-07-27T02:35:48.298Z,6.45
2022-07-27T02:37:55.843Z,5.88
2022-07-27T02:40:02.963Z,7.50
2022-07-27T02:42:10.349Z,5.97
2022-07-27T02:44:19.684Z,5.97
2022-07-27T02:46:26.921Z,7.80
2022-07-27T02:48:35.831Z,6.07
2022-07-27T02:50:42.927Z,6.15
2022-07-27T02:52:50.455Z,8.27
2022-07-27T02:54:57.748Z,6.45
2022-07-27T02:57:06.152Z,7.15
2022-07-27T02:59:13.697Z,8.82
2022-07-27T03:01:23.451Z,6.68
2022-07-27T03:03:35.942Z,6.78
2022-07-27T03:05:44.565Z,6.57
2022-07-27T03:07:51.789Z,7.10
2022-07-27T03:09:59.175Z,6.05
2022-07-27T03:12:06.567Z,6.97
2022-07-27T03:14:14.046Z,7.00
2022-07-27T03:16:24.497Z,6.32
2022-07-27T03:18:32.100Z,7.68
2022-07-27T03:20:39.241Z,8.20
2022-07-27T03:22:46.822Z,9.32
2022-07-27T03:24:53.857Z,6.55
2022-07-27T03:27:01.440Z,7.68
2022-07-27T03:29:09.092Z,7.90
2022-07-27T03:31:17.043Z,6.53
2022-07-27T03:33:25.851Z,5.55
2022-07-27T03:35:33.439Z,6.63
2022-07-27T03:37:40.726Z,7.20
2022-07-27T03:39:47.975Z,7.88
2022-07-27T03:41:55.050Z,6.18
2022-07-27T03:44:02.533Z,6.18
2022-07-27T03:46:09.563Z,5.95
2022-07-27T03:48:16.736Z,6.65
2022-07-27T03:50:26.016Z,7.15
2022-07-27T03:52:33.309Z,7.47
2022-07-27T03:54:40.429Z,8.10
2022-07-27T03:56:47.817Z,8.38
2022-07-27T03:58:55.267Z,7.22
2022-07-27T04:01:02.548Z,6.20
2022-07-27T04:03:09.822Z,6.85
2022-07-27T04:05:17.172Z,7.95
2022-07-27T04:07:25.989Z,6.60
2022-07-27T04:09:33.268Z,6.43
2022-07-27T04:11:43.720Z,8.98
2022-07-27T04:13:58.735Z,7.78
2022-07-27T04:16:07.710Z,6.57
2022-07-27T04:18:15.096Z,7.53
2022-07-27T04:20:22.493Z,7.15
2022-07-27T04:22:31.711Z,8.52
2022-07-27T04:24:38.974Z,7.38
2022-07-27T04:26:46.177Z,7.03
2022-07-27T04:28:53.061Z,7.63
2022-07-27T04:31:00.332Z,6.90
2022-07-27T04:33:07.670Z,6.75
2022-07-27T04:35:28.074Z,6.47
2022-07-27T04:37:37.243Z,6.53
2022-07-27T04:39:44.428Z,6.93
2022-07-27T04:41:51.604Z,6.10
2022-07-27T04:43:58.737Z,6.35
2022-07-27T04:46:11.754Z,7.68
2022-07-27T04:48:21.955Z,7.60
2022-07-27T04:50:29.290Z,6.38
2022-07-27T04:52:40.108Z,5.85
2022-07-27T04:54:47.546Z,7.45
2022-07-27T04:56:54.981Z,6.82
2022-07-27T04:59:02.173Z,6.53
2022-07-27T05:01:09.589Z,6.20
2022-07-27T05:03:16.794Z,7.38
2022-07-27T05:05:26.267Z,6.70
2022-07-27T05:07:33.502Z,7.13
2022-07-27T05:09:42.845Z,5.82
2022-07-27T05:11:51.089Z,5.95
2022-07-27T05:13:59.297Z,7.28
2022-07-27T05:16:06.559Z,5.53
2022-07-27T05:18:13.669Z,6.45
2022-07-27T05:20:21.156Z,6.25
2022-07-27T05:22:28.291Z,5.40
2022-07-27T05:24:35.519Z,7.85
2022-07-27T05:26:44.537Z,4.95
2022-07-27T05:28:51.924Z,6.20
2022-07-27T05:30:59.104Z,5.38
2022-07-27T05:33:06.902Z,7.63
2022-07-27T05:35:14.440Z,6.55
2022-07-27T05:37:22.140Z,5.40
2022-07-27T05:39:29.057Z,7.20
2022-07-27T05:41:36.447Z,6.15
2022-07-27T05:43:45.738Z,5.63
2022-07-27T05:45:52.757Z,6.05
2022-07-27T05:48:00.812Z,5.57
2022-07-27T05:50:08.612Z,5.10
2022-07-27T05:52:15.795Z,6.32
2022-07-27T05:54:23.327Z,5.85
2022-07-27T05:56:30.362Z,5.10
2022-07-27T05:58:37.802Z,6.30
2022-07-27T06:00:46.697Z,5.78
2022-07-27T06:02:53.944Z,5.38
2022-07-27T06:05:01.692Z,4.65
2022-07-27T06:07:25.672Z,7.07
2022-07-27T06:09:32.703Z,4.32
2022-07-27T06:11:39.822Z,5.40
2022-07-27T06:13:47.310Z,5.00
2022-07-27T06:15:56.237Z,5.00
2022-07-27T06:18:05.006Z,6.35
2022-07-27T06:20:12.911Z,4.97
2022-07-27T06:22:20.698Z,4.22
2022-07-27T06:24:27.569Z,4.47
2022-07-27T06:26:35.166Z,4.53
2022-07-27T06:28:42.602Z,3.80
2022-07-27T06:30:50.504Z,4.13
2022-07-27T06:33:00.457Z,4.30
2022-07-27T06:35:09.318Z,5.43
2022-07-27T06:37:16.602Z,4.70
2022-07-27T06:39:25.880Z,4.47
2022-07-27T06:41:35.210Z,4.32
2022-07-27T06:43:42.396Z,3.72
2022-07-27T06:45:49.583Z,4.18
2022-07-27T06:47:58.607Z,4.50
2022-07-27T06:50:05.641Z,4.32
2022-07-27T06:52:12.970Z,4.60
2022-07-27T06:54:20.249Z,4.20
2022-07-27T06:56:27.634Z,5.35
2022-07-27T06:58:35.227Z,4.88
2022-07-27T07:00:42.338Z,4.15
2022-07-27T07:02:59.429Z,4.55
2022-07-27T07:05:06.503Z,6.10
2022-07-27T07:07:13.785Z,4.68
2022-07-27T07:09:20.809Z,4.93
2022-07-27T07:11:27.690Z,5.20
2022-07-27T07:13:38.420Z,4.65
2022-07-27T07:15:47.736Z,4.20
2022-07-27T07:17:54.919Z,5.20
2022-07-27T07:20:04.043Z,4.07
2022-07-27T07:22:11.324Z,5.47
2022-07-27T07:24:18.963Z,6.00
2022-07-27T07:26:26.104Z,5.05
2022-07-27T07:28:33.481Z,4.78
2022-07-27T07:30:42.308Z,5.57
2022-07-27T07:32:49.695Z,3.45
2022-07-27T07:34:57.387Z,4.43
2022-07-27T07:37:06.774Z,4.05
2022-07-27T07:39:14.158Z,4.53
2022-07-27T07:41:21.692Z,4.43
2022-07-27T07:43:28.984Z,4.20
2022-07-27T07:45:50.003Z,4.28
2022-07-27T07:47:59.311Z,4.57
2022-07-27T07:50:06.810Z,4.28
2022-07-27T07:52:15.983Z,4.82
2022-07-27T07:54:23.265Z,3.95
2022-07-27T07:56:30.706Z,3.95
2022-07-27T07:58:38.266Z,3.63
2022-07-27T08:00:45.783Z,4.25
2022-07-27T08:02:54.753Z,4.00
2022-07-27T08:05:01.785Z,3.90
2022-07-27T08:07:09.180Z,4.70
2022-07-27T08:09:23.008Z,5.97
2022-07-27T08:11:31.070Z,4.30
2022-07-27T08:13:38.195Z,4.40
2022-07-27T08:15:45.820Z,4.57
2022-07-27T08:17:53.019Z,4.10
2022-07-27T08:20:00.450Z,5.30
2022-07-27T08:22:07.478Z,4.32
2022-07-27T08:24:14.765Z,4.90
2022-07-27T08:26:24.157Z,3.90
2022-07-27T08:28:35.701Z,4.15
2022-07-27T08:30:44.347Z,5.63
2022-07-27T08:32:56.853Z,4.15
2022-07-27T08:35:03.793Z,5.28
2022-07-27T08:37:15.077Z,4.22
2022-07-27T08:40:05.454Z,3.55
2022-07-27T08:41:51.956Z,4.40
2022-07-27T08:44:02.559Z,5.70
2022-07-27T08:46:10.320Z,4.00
2022-07-27T08:48:19.025Z,3.60
2022-07-27T08:50:26.716Z,3.85
2022-07-27T08:52:34.677Z,5.35
2022-07-27T08:54:44.306Z,3.72
2022-07-27T08:56:52.919Z,4.45
2022-07-27T08:59:00.479Z,5.25
2022-07-27T09:01:07.557Z,4.15
2022-07-27T09:03:19.801Z,5.50
2022-07-27T09:05:36.698Z,4.78
2022-07-27T09:07:45.523Z,5.85
2022-07-27T09:09:52.854Z,5.68
2022-07-27T09:12:12.888Z,4.57
2022-07-27T09:14:19.929Z,4.18
2022-07-27T09:17:44.174Z,4.45
2022-07-27T09:19:16.271Z,4.07
2022-07-27T09:21:24.624Z,4.45
2022-07-27T09:23:32.058Z,5.90
2022-07-27T09:28:10.089Z,8.15
2022-07-27T09:30:19.368Z,5.22
2022-07-27T09:32:26.538Z,5.45
2022-07-27T09:34:36.280Z,4.30
2022-07-27T09:36:55.852Z,5.45
2022-07-27T09:39:06.579Z,4.32
2022-07-27T09:41:13.800Z,5.57
2022-07-27T09:45:51.275Z,6.70
2022-07-27T09:48:11.187Z,5.22
2022-07-27T09:50:22.667Z,5.40
2022-07-27T09:52:32.319Z,5.97
2022-07-27T09:54:48.194Z,4.68
2022-07-27T09:57:03.984Z,5.00
2022-07-27T09:59:20.536Z,4.93
2022-07-27T10:01:29.530Z,5.40
2022-07-27T10:03:37.193Z,4.78
2022-07-27T10:05:44.783Z,4.75
2022-07-27T10:07:52.481Z,4.93
2022-07-27T10:09:59.967Z,5.18
2022-07-27T10:12:07.971Z,5.03
2022-07-27T10:14:17.663Z,4.40
2022-07-27T10:16:30.069Z,4.43
2022-07-27T10:19:03.268Z,5.65
2022-07-27T10:21:16.016Z,8.13
2022-07-27T10:23:35.948Z,6.38
2022-07-27T10:25:48.305Z,6.18
2022-07-27T10:28:13.977Z,6.50
2022-07-27T10:30:27.687Z,5.95
2022-07-27T10:32:36.577Z,7.97
2022-07-27T10:34:44.941Z,6.28
2022-07-27T10:36:54.365Z,7.35
2022-07-27T10:39:03.696Z,6.18
2022-07-27T10:41:27.476Z,5.68
2022-07-27T10:43:34.865Z,6.50
2022-07-27T10:45:53.914Z,6.45
2022-07-27T10:48:10.067Z,5.70
2022-07-27T10:50:34.544Z,7.32
2022-07-27T10:52:46.551Z,7.00
2022-07-27T10:57:09.151Z,6.00
2022-07-27T10:59:16.632Z,5.47
2022-07-27T11:01:26.327Z,7.57
2022-07-27T11:03:35.141Z,9.20
2022-07-27T11:06:02.028Z,5.57
2022-07-27T11:08:36.046Z,6.43
2022-07-27T11:10:47.279Z,7.10
2022-07-27T11:12:59.538Z,5.82
2022-07-27T11:15:11.316Z,7.68
2022-07-27T11:19:48.310Z,6.50
2022-07-27T11:21:55.922Z,7.68
2022-07-27T11:24:07.742Z,7.50
2022-07-27T11:26:15.227Z,9.13
2022-07-27T11:28:30.859Z,7.53
2022-07-27T11:30:38.291Z,6.60
2022-07-27T11:32:47.219Z,8.07
2022-07-27T11:34:55.136Z,10.15
2022-07-27T11:37:04.079Z,9.85
2022-07-27T11:39:14.915Z,20.20
2022-07-27T11:42:04.711Z,36.60
2022-07-27T11:43:57.634Z,49.22
2022-07-27T11:46:16.972Z,68.10
2022-07-27T11:48:29.082Z,67.35
2022-07-27T11:53:07.733Z,72.05
2022-07-27T11:55:16.349Z,53.15
2022-07-27T11:57:24.007Z,38.38
2022-07-27T11:59:33.168Z,30.98
2022-07-27T12:01:42.758Z,19.83
2022-07-27T12:03:51.732Z,21.02
2022-07-27T12:06:01.477Z,15.93
2022-07-27T12:08:09.064Z,15.50
2022-07-27T12:10:16.307Z,12.75
2022-07-27T12:12:24.755Z,12.88
2022-07-27T12:14:38.136Z,19.80
2022-07-27T12:16:45.353Z,17.65
2022-07-27T12:18:54.914Z,15.82
2022-07-27T12:21:01.979Z,16.98
2022-07-27T12:23:10.138Z,17.95
2022-07-27T12:25:31.860Z,16.40
2022-07-27T12:27:39.655Z,16.77
2022-07-27T12:30:01.025Z,19.17
2022-07-27T12:32:08.815Z,15.93
2022-07-27T12:34:18.307Z,14.43
2022-07-27T12:36:30.755Z,15.82
2022-07-27T12:38:45.273Z,15.90
2022-07-27T12:40:59.846Z,14.60
2022-07-27T12:43:10.631Z,17.67
2022-07-27T12:45:23.238Z,14.75
2022-07-27T12:47:45.323Z,15.48
2022-07-27T12:50:07.964Z,15.32
2022-07-27T12:52:15.559Z,15.15
2022-07-27T12:54:23.614Z,15.95
2022-07-27T12:56:30.800Z,18.45
2022-07-27T12:58:38.741Z,14.85
2022-07-27T13:00:46.042Z,18.92
2022-07-27T13:02:53.798Z,13.65
2022-07-27T13:05:01.116Z,16.38
2022-07-27T13:07:10.487Z,11.73
2022-07-27T13:09:17.618Z,14.13
2022-07-27T13:11:25.463Z,12.27
2022-07-27T13:13:32.543Z,15.63
2022-07-27T13:15:40.133Z,14.32
2022-07-27T13:17:48.293Z,16.77
2022-07-27T13:19:55.786Z,16.20
2022-07-27T13:22:03.435Z,14.93
2022-07-27T13:24:12.750Z,16.23
2022-07-27T13:26:21.777Z,20.38
2022-07-27T13:28:28.912Z,18.35
2022-07-27T13:30:38.497Z,16.75
2022-07-27T13:32:46.148Z,17.17
2022-07-27T13:34:53.378Z,16.83
2022-07-27T13:37:00.561Z,17.00
2022-07-27T13:39:07.936Z,16.02
2022-07-27T13:41:17.372Z,16.67
2022-07-27T13:43:24.306Z,14.95
2022-07-27T13:45:43.011Z,14.30
2022-07-27T13:47:50.793Z,13.10
2022-07-27T13:49:58.438Z,14.05
2022-07-27T13:52:05.832Z,15.40
2022-07-27T13:54:13.160Z,16.23
2022-07-27T13:56:23.002Z,13.85
2022-07-27T13:58:31.054Z,13.15
2022-07-27T14:00:39.082Z,14.88
2022-07-27T14:02:47.170Z,15.82
2022-07-27T14:04:54.803Z,14.93
2022-07-27T14:07:04.298Z,16.20
2022-07-27T14:09:12.825Z,14.95
2022-07-27T14:11:26.486Z,15.30
2022-07-27T14:13:33.866Z,17.35
2022-07-27T14:15:53.785Z,12.77
2022-07-27T14:18:02.475Z,19.23
2022-07-27T14:20:10.883Z,17.25
2022-07-27T14:22:18.135Z,19.70
2022-07-27T14:24:25.753Z,20.15
2022-07-27T14:26:34.677Z,17.48
2022-07-27T14:28:43.957Z,17.65
2022-07-27T14:30:52.578Z,16.73
2022-07-27T14:33:03.450Z,20.63
2022-07-27T14:35:12.000Z,20.48
2022-07-27T14:37:19.386Z,19.65
2022-07-27T14:39:26.471Z,16.00
2022-07-27T14:41:39.085Z,17.67
2022-07-27T14:43:48.256Z,18.05
2022-07-27T14:45:55.495Z,17.08
2022-07-27T14:48:02.724Z,14.60
2022-07-27T14:50:10.885Z,19.90
2022-07-27T14:52:19.794Z,15.65
2022-07-27T14:54:27.087Z,16.40
2022-07-27T14:56:37.518Z,16.10
2022-07-27T14:58:45.134Z,16.67
2022-07-27T15:00:53.770Z,15.63
2022-07-27T15:03:01.494Z,21.83
2022-07-27T15:05:09.745Z,16.67
2022-07-27T15:07:17.185Z,17.60
2022-07-27T15:09:24.583Z,16.92
2022-07-27T15:11:31.866Z,16.88
2022-07-27T15:13:40.624Z,14.15
2022-07-27T15:15:49.385Z,14.65
2022-07-27T15:17:56.600Z,17.48
2022-07-27T15:20:04.011Z,18.48
2022-07-27T15:22:11.256Z,16.80
2022-07-27T15:24:18.782Z,15.48
2022-07-27T15:26:25.965Z,18.50
2022-07-27T15:28:33.207Z,14.60
2022-07-27T15:30:42.220Z,14.27
2022-07-27T15:32:49.673Z,16.85
2022-07-27T15:34:56.955Z,18.27
2022-07-27T15:37:08.334Z,15.50
2022-07-27T15:39:17.233Z,13.48
2022-07-27T15:41:24.420Z,14.60
2022-07-27T15:43:31.611Z,18.45
2022-07-27T15:45:39.678Z,18.80
2022-07-27T15:47:52.673Z,14.18
2022-07-27T15:50:00.280Z,15.57
2022-07-27T15:52:08.181Z,13.45
2022-07-27T15:54:15.411Z,13.38
2022-07-27T15:56:22.794Z,15.05
2022-07-27T15:58:30.231Z,16.52
2022-07-27T16:00:40.513Z,12.77
2022-07-27T16:04:57.914Z,12.75
2022-07-27T16:07:05.047Z,13.05
2022-07-27T16:09:12.843Z,11.20
2022-07-27T16:11:20.309Z,14.20
2022-07-27T16:13:28.111Z,12.50
2022-07-27T16:15:52.136Z,13.82
2022-07-27T16:18:00.756Z,17.38
2022-07-27T16:20:08.829Z,14.60
2022-07-27T16:22:16.319Z,11.45
2022-07-27T16:24:23.402Z,12.15
2022-07-27T16:26:32.267Z,11.07
2022-07-27T16:28:42.153Z,12.68
2022-07-27T16:30:49.335Z,12.05
2022-07-27T16:32:56.530Z,13.10
2022-07-27T16:35:10.276Z,13.10
2022-07-27T16:37:19.188Z,11.07
2022-07-27T16:39:26.663Z,11.98
2022-07-27T16:41:33.701Z,10.98
2022-07-27T16:43:41.540Z,12.40
2022-07-27T16:45:48.682Z,15.48
2022-07-27T16:47:55.963Z,11.98
2022-07-27T16:50:05.234Z,11.50
2022-07-27T16:52:12.722Z,10.60
2022-07-27T16:54:19.902Z,12.50
2022-07-27T16:56:27.340Z,12.43
2022-07-27T16:58:35.243Z,13.98
2022-07-27T17:00:42.530Z,12.57
2022-07-27T17:02:49.741Z,13.15
2022-07-27T17:04:57.049Z,12.65
2022-07-27T17:07:05.964Z,11.50
2022-07-27T17:09:20.312Z,13.00
2022-07-27T17:11:27.905Z,13.70
2022-07-27T17:13:35.559Z,12.35
2022-07-27T17:15:42.759Z,12.38
2022-07-27T17:17:50.235Z,11.55
2022-07-27T17:19:57.359Z,12.38
2022-07-27T17:22:07.708Z,11.57
2022-07-27T17:24:14.834Z,12.55
2022-07-27T17:26:24.256Z,13.93
2022-07-27T17:28:34.120Z,14.60
2022-07-27T17:30:41.394Z,14.63
2022-07-27T17:32:48.691Z,16.77
2022-07-27T17:34:56.116Z,15.40
2022-07-27T17:37:05.095Z,15.95
2022-07-27T17:39:13.707Z,13.63
2022-07-27T17:41:24.919Z,13.63
2022-07-27T17:45:39.448Z,14.35
2022-07-27T17:47:46.585Z,14.40
2022-07-27T17:49:53.671Z,17.00
2022-07-27T17:52:01.153Z,15.40
2022-07-27T17:54:10.020Z,17.67
2022-07-27T17:56:17.160Z,17.70
2022-07-27T17:58:29.750Z,17.33
2022-07-27T18:00:37.353Z,18.48
2022-07-27T18:02:44.890Z,16.45
2022-07-27T18:04:51.807Z,16.05
2022-07-27T18:06:58.996Z,15.15
2022-07-27T18:09:08.181Z,15.65
2022-07-27T18:11:16.952Z,15.55
2022-07-27T18:13:37.889Z,15.88
2022-07-27T18:15:53.072Z,16.27
2022-07-27T18:18:00.405Z,15.52
2022-07-27T18:20:07.900Z,17.45
2022-07-27T18:22:15.434Z,16.42
2022-07-27T18:24:24.774Z,16.52
2022-07-27T18:26:33.532Z,14.60
2022-07-27T18:28:40.920Z,16.27
2022-07-27T18:30:48.975Z,16.58
2022-07-27T18:32:56.107Z,14.85
2022-07-27T18:35:03.450Z,16.13
2022-07-27T18:37:10.727Z,16.63
2022-07-27T18:39:18.267Z,15.68
2022-07-27T18:41:25.957Z,16.65
2022-07-27T18:43:35.387Z,16.58
2022-07-27T18:45:42.832Z,17.40
2022-07-27T18:47:50.419Z,16.63
2022-07-27T18:49:57.918Z,16.33
2022-07-27T18:52:05.651Z,15.88
2022-07-27T18:54:12.691Z,16.20
2022-07-27T18:56:19.814Z,16.50
2022-07-27T18:58:26.888Z,15.65
2022-07-27T19:00:36.185Z,18.13
2022-07-27T19:02:44.018Z,16.58
2022-07-27T19:04:51.709Z,15.07
2022-07-27T19:06:59.311Z,17.73
2022-07-27T19:09:07.304Z,14.63
2022-07-27T19:11:14.790Z,16.35
2022-07-27T19:13:22.279Z,16.17
2022-07-27T19:15:30.338Z,15.40
2022-07-27T19:17:39.407Z,16.67
2022-07-27T19:19:46.285Z,15.35
2022-07-27T19:21:53.836Z,16.35
2022-07-27T19:24:01.104Z,19.30
2022-07-27T19:26:08.544Z,17.65
2022-07-27T19:28:17.319Z,16.02
2022-07-27T19:30:24.549Z,16.38
2022-07-27T19:32:31.932Z,14.95
2022-07-27T19:34:40.907Z,16.13
2022-07-27T19:36:48.399Z,16.25
2022-07-27T19:38:55.682Z,15.50
2022-07-27T19:41:03.322Z,14.90
2022-07-27T19:43:11.375Z,18.42
2022-07-27T19:45:18.615Z,16.05
2022-07-27T19:47:26.517Z,16.42
2022-07-27T19:49:33.557Z,17.88
2022-07-27T19:51:42.710Z,17.95
2022-07-27T19:53:50.199Z,18.60
2022-07-27T19:55:57.641Z,18.05
2022-07-27T19:58:04.930Z,16.45
2022-07-27T20:00:13.244Z,17.63
2022-07-27T20:02:20.618Z,14.55
2022-07-27T20:04:28.004Z,19.40
2022-07-27T20:06:37.539Z,18.33
2022-07-27T20:08:46.421Z,14.77
2022-07-27T20:10:53.749Z,14.43
2022-07-27T20:13:01.134Z,15.77
2022-07-27T20:15:08.734Z,15.07
2022-07-27T20:17:16.009Z,15.30
2022-07-27T20:19:23.248Z,13.77
2022-07-27T20:21:30.831Z,23.85
2022-07-27T20:23:38.637Z,21.20
2022-07-27T20:25:53.182Z,18.17
2022-07-27T20:28:00.164Z,20.05
2022-07-27T20:30:09.134Z,17.75
2022-07-27T20:32:16.219Z,19.92
2022-07-27T20:34:23.650Z,17.45
2022-07-27T20:36:31.099Z,20.23
2022-07-27T20:38:38.220Z,21.58
2022-07-27T20:40:46.886Z,18.85
2022-07-27T20:42:55.661Z,19.48
2022-07-27T20:45:02.938Z,15.63
2022-07-27T20:47:10.168Z,16.17
2022-07-27T20:49:17.916Z,19.55
2022-07-27T20:51:25.605Z,17.25
2022-07-27T20:53:33.254Z,17.67
2022-07-27T20:55:41.762Z,20.23
2022-07-27T20:57:48.842Z,20.20
2022-07-27T20:59:57.815Z,18.52
2022-07-27T21:02:05.413Z,22.92
2022-07-27T21:04:13.205Z,23.35
2022-07-27T21:06:20.489Z,20.20
2022-07-27T21:08:28.611Z,21.45
2022-07-27T21:10:35.835Z,21.35
2022-07-27T21:12:43.372Z,20.77
2022-07-27T21:14:50.506Z,23.83
2022-07-27T21:17:00.022Z,18.27
2022-07-27T21:19:07.160Z,17.05
2022-07-27T21:21:14.759Z,18.50
2022-07-27T21:23:38.631Z,21.25
2022-07-27T21:25:46.474Z,17.83
2022-07-27T21:27:54.223Z,18.40
2022-07-27T21:30:02.383Z,16.75
2022-07-27T21:32:11.306Z,16.70
2022-07-27T21:34:20.071Z,17.65
2022-07-27T21:36:27.194Z,16.80
2022-07-27T21:38:34.899Z,16.92
2022-07-27T21:40:41.924Z,17.48
2022-07-27T21:42:49.405Z,18.23
2022-07-27T21:44:56.379Z,16.15
2022-07-27T21:47:06.764Z,15.10
2022-07-27T21:49:19.409Z,16.85
2022-07-27T21:51:32.055Z,15.30
2022-07-27T21:53:39.198Z,15.60
2022-07-27T21:55:46.529Z,15.85
2022-07-27T21:57:53.661Z,19.60
2022-07-27T22:00:00.884Z,16.98
2022-07-27T22:02:11.139Z,15.00
2022-07-27T22:04:20.130Z,16.55
2022-07-27T22:06:28.063Z,17.52
2022-07-27T22:08:35.755Z,17.92
2022-07-27T22:10:43.140Z,19.25
2022-07-27T22:12:50.485Z,15.07
2022-07-27T22:14:57.815Z,15.70
2022-07-27T22:17:05.659Z,19.52
2022-07-27T22:19:12.788Z,16.52
2022-07-27T22:21:21.816Z,16.15
2022-07-27T22:23:29.201Z,15.20
2022-07-27T22:25:36.436Z,17.58
2022-07-27T22:27:43.614Z,15.55
2022-07-27T22:29:50.645Z,15.57
2022-07-27T22:31:57.713Z,18.20
2022-07-27T22:34:04.699Z,17.60
2022-07-27T22:36:13.010Z,19.05
2022-07-27T22:38:22.042Z,19.80
2022-07-27T22:40:29.470Z,20.48
2022-07-27T22:42:36.868Z,19.30
2022-07-27T22:44:44.606Z,19.35
2022-07-27T22:46:51.532Z,18.40
2022-07-27T22:48:58.862Z,19.70
2022-07-27T22:51:06.307Z,21.67
2022-07-27T22:53:14.197Z,22.95
2022-07-27T22:55:22.970Z,23.20
2022-07-27T22:57:30.509Z,20.77
2022-07-27T22:59:38.607Z,24.80
2022-07-27T23:01:47.999Z,22.67
2022-07-27T23:03:55.583Z,20.90
2022-07-27T23:06:03.020Z,26.75
2022-07-27T23:08:10.628Z,26.48
2022-07-27T23:10:31.157Z,38.92
2022-07-27T23:12:39.873Z,39.45
2022-07-27T23:14:49.289Z,36.28
2022-07-27T23:16:56.645Z,33.42
2022-07-27T23:19:03.942Z,29.42
2022-07-27T23:21:11.059Z,27.27
2022-07-27T23:23:18.453Z,29.48
2022-07-27T23:25:35.197Z,31.35
2022-07-27T23:27:45.404Z,34.53
2022-07-27T23:29:52.342Z,36.58
2022-07-27T23:31:59.557Z,35.20
2022-07-27T23:34:07.169Z,33.42
2022-07-27T23:36:14.397Z,30.55
2022-07-27T23:38:21.823Z,33.50
2022-07-27T23:40:29.109Z,33.55
2022-07-27T23:42:36.851Z,28.55
2022-07-27T23:44:45.829Z,28.13
2022-07-27T23:46:53.259Z,25.83
2022-07-27T23:49:00.406Z,23.40
2022-07-27T23:51:07.522Z,22.50
2022-07-27T23:53:14.901Z,22.73
2022-07-27T23:55:22.460Z,20.10
2022-07-27T23:57:30.106Z,25.70
2022-07-27T23:59:37.379Z,19.85
